Time;durP1;ratioP1;P1;durP2;ratioP2;P2;SDS_P1;SDS_P2;PMS_P1;PMS_P2;Temp;Humidity;BMP_temperature;BMP_pressure;BME280_temperature;BME280_humidity;BME280_pressure;Samples;Min_cycle;Max_cycle;Signal;HPM_P1;HPM_P2
2022/03/05 00:02:22;;;;;;;;;;;;;;;0.13;100.00;101922.75;5215196;28;19919;-61
2022/03/05 00:04:52;;;;;;;;;;;;;;;0.14;100.00;101921.75;5214922;28;19913;-62
2022/03/05 00:07:22;;;;;;;;;;;;;;;0.16;100.00;101922.44;5233143;28;20288;-61
2022/03/05 00:09:52;;;;;;;;;;;;;;;0.14;100.00;101922.59;5232722;28;19912;-62
2022/03/05 00:12:23;;;;;;;;;;;;;;;0.07;100.00;101923.41;5214992;28;19966;-62
2022/03/05 00:14:53;;;;;;;;;;;;;;;-0.05;100.00;101936.97;5232952;28;19913;-62
2022/03/05 00:17:23;;;;;;;;;;;;;;;-0.15;100.00;101927.47;5215114;28;19912;-62
2022/03/05 00:19:54;;;;;;;;;;;;;;;-0.28;100.00;101927.91;5214753;28;19948;-62
2022/03/05 00:22:24;;;;;;;;;;;;;;;-0.40;100.00;101927.38;5214799;28;19923;-61
2022/03/05 00:24:55;;;;;;;;;;;;;;;-0.48;100.00;101924.66;5214939;28;19912;-63
2022/03/05 00:27:25;;;;;;;;;;;;;;;-0.51;100.00;101932.09;5214898;28;19916;-61
2022/03/05 00:29:56;;;;;;;;;;;;;;;-0.58;100.00;101939.03;5214931;28;19939;-62
2022/03/05 00:32:27;;;;;;;;;;;;;;;-0.66;100.00;101936.34;5214919;28;19913;-61
2022/03/05 00:34:57;;;;;;;;;;;;;;;-0.66;100.00;101934.50;5214504;28;20354;-61
2022/03/05 00:37:27;;;;;;;;;;;;;;;-0.64;100.00;101940.50;5210916;28;19912;-61
2022/03/05 00:39:58;;;;;;;;;;;;;;;-0.64;100.00;101937.00;5211431;28;20300;-62
2022/03/05 00:42:29;;;;;;;;;;;;;;;-0.69;100.00;101945.44;5211288;28;19913;-61
2022/03/05 00:44:59;;;;;;;;;;;;;;;-0.72;100.00;101940.44;5211798;28;19920;-62
2022/03/05 00:47:29;;;;;;;;;;;;;;;-0.71;100.00;101936.78;5211722;28;19917;-62
2022/03/05 00:50:00;;;;;;;;;;;;;;;-0.62;100.00;101940.34;5211638;28;19924;-60
2022/03/05 00:52:31;;;;;;;;;;;;;;;-0.59;100.00;101942.69;5211505;28;19917;-62
2022/03/05 00:55:01;;;;;;;;;;;;;;;-0.56;100.00;101937.03;5210912;28;19913;-62
2022/03/05 00:57:31;;;;;;;;;;;;;;;-0.57;100.00;101940.69;5211315;28;20449;-61
2022/03/05 01:00:03;;;;;;;;;;;;;;;-0.57;100.00;101933.56;5228968;28;19939;-61
2022/03/05 01:02:33;;;;;;;;;;;;;;;-0.56;100.00;101929.06;5211214;28;19970;-59
2022/03/05 01:05:04;;;;;;;;;;;;;;;-0.55;100.00;101939.53;5210865;28;20406;-63
2022/03/05 01:07:34;;;;;;;;;;;;;;;-0.55;100.00;101926.28;5211220;28;20390;-59
2022/03/05 01:10:05;;;;;;;;;;;;;;;-0.57;100.00;101938.03;5210976;28;19966;-61
2022/03/05 01:12:36;;;;;;;;;;;;;;;-0.68;100.00;101937.31;5211356;28;19989;-61
2022/03/05 01:15:07;;;;;;;;;;;;;;;-0.82;100.00;101948.47;5210668;28;20003;-62
2022/03/05 01:17:37;;;;;;;;;;;;;;;-0.93;100.00;101951.41;5210771;28;19983;-61
2022/03/05 01:20:09;;;;;;;;;;;;;;;-1.03;100.00;101945.34;5210741;28;20333;-61
2022/03/05 01:22:39;;;;;;;;;;;;;;;-1.14;100.00;101948.22;5210630;28;19936;-61
2022/03/05 01:25:09;;;;;;;;;;;;;;;-1.23;100.00;101946.50;5210555;28;19912;-62
2022/03/05 01:27:40;;;;;;;;;;;;;;;-1.31;100.00;101957.03;5210432;28;20396;-61
2022/03/05 01:30:10;;;;;;;;;;;;;;;-1.39;100.00;101947.19;5210751;28;20003;-61
2022/03/05 01:32:41;;;;;;;;;;;;;;;-1.42;100.00;101947.47;5210518;28;19959;-61
2022/03/05 01:35:12;;;;;;;;;;;;;;;-1.37;100.00;101946.03;5210376;28;19913;-61
2022/03/05 01:37:42;;;;;;;;;;;;;;;-1.36;100.00;101942.41;5210412;28;19936;-59
2022/03/05 01:40:12;;;;;;;;;;;;;;;-1.36;100.00;101950.34;5210179;28;19917;-61
2022/03/05 01:42:43;;;;;;;;;;;;;;;-1.36;100.00;101952.19;5228496;28;19970;-61
2022/03/05 01:45:13;;;;;;;;;;;;;;;-1.40;100.00;101946.34;5210295;28;20361;-61
2022/03/05 01:47:45;;;;;;;;;;;;;;;-1.47;100.00;101947.94;5227866;28;19943;-61
2022/03/05 01:50:15;;;;;;;;;;;;;;;-1.53;100.00;101948.53;5210366;28;19913;-61
2022/03/05 01:52:46;;;;;;;;;;;;;;;-1.64;100.00;101948.75;5210095;28;19999;-61
2022/03/05 01:55:16;;;;;;;;;;;;;;;-1.70;100.00;101952.00;5209793;28;20380;-61
2022/03/05 01:57:46;;;;;;;;;;;;;;;-1.68;100.00;101946.53;5210113;28;19913;-61
2022/03/05 02:00:17;;;;;;;;;;;;;;;-1.62;100.00;101944.13;5209884;28;19916;-61
2022/03/05 02:02:47;;;;;;;;;;;;;;;-1.55;100.00;101945.22;5209760;28;19959;-62
2022/03/05 02:05:18;;;;;;;;;;;;;;;-1.53;100.00;101939.78;5209609;28;19913;-61
2022/03/05 02:07:48;;;;;;;;;;;;;;;-1.58;100.00;101942.88;5209882;28;19919;-62
2022/03/05 02:10:18;;;;;;;;;;;;;;;-1.59;100.00;101935.06;5209869;28;20404;-62
2022/03/05 02:12:49;;;;;;;;;;;;;;;-1.63;100.00;101945.13;5209741;28;19913;-62
2022/03/05 02:15:19;;;;;;;;;;;;;;;-1.70;100.00;101938.75;5209589;28;20380;-61
2022/03/05 02:17:49;;;;;;;;;;;;;;;-1.80;100.00;101944.13;5227213;28;19916;-62
2022/03/05 02:20:20;;;;;;;;;;;;;;;-1.86;100.00;101944.72;5209429;28;20401;-62
2022/03/05 02:22:50;;;;;;;;;;;;;;;-1.83;100.00;101943.59;5209555;28;19917;-62
2022/03/05 02:25:20;;;;;;;;;;;;;;;-1.81;100.00;101941.63;5209456;28;19920;-61
2022/03/05 02:27:51;;;;;;;;;;;;;;;-1.79;100.00;101937.84;5209758;28;19963;-61
2022/03/05 02:30:21;;;;;;;;;;;;;;;-1.80;100.00;101940.66;5209334;28;19914;-61
2022/03/05 02:32:52;;;;;;;;;;;;;;;-1.89;100.00;101942.38;5209164;28;19913;-62
2022/03/05 02:35:22;;;;;;;;;;;;;;;-1.97;100.00;101936.13;5208975;28;20314;-61
2022/03/05 02:37:54;;;;;;;;;;;;;;;-2.04;100.00;101930.63;5209350;28;19920;-60
2022/03/05 02:40:24;;;;;;;;;;;;;;;-2.10;100.00;101936.50;5209125;28;19916;-61
2022/03/05 02:42:55;;;;;;;;;;;;;;;-2.08;100.00;101934.53;5209038;28;19920;-60
2022/03/05 02:45:25;;;;;;;;;;;;;;;-2.09;100.00;101931.06;5208901;28;19913;-61
2022/03/05 02:47:55;;;;;;;;;;;;;;;-2.06;100.00;101927.28;5208981;28;19924;-61
2022/03/05 02:50:26;;;;;;;;;;;;;;;-2.03;100.00;101931.44;5209096;28;20293;-62
2022/03/05 02:52:56;;;;;;;;;;;;;;;-2.03;100.00;101926.16;5227040;28;19920;-60
2022/03/05 02:55:27;;;;;;;;;;;;;;;-2.03;100.00;101934.09;5208665;28;20004;-62
2022/03/05 02:57:57;;;;;;;;;;;;;;;-2.06;100.00;101929.94;5209086;28;19959;-61
2022/03/05 03:00:27;;;;;;;;;;;;;;;-2.14;100.00;101943.88;5208474;28;19921;-62
2022/03/05 03:02:58;;;;;;;;;;;;;;;-2.19;100.00;101943.50;5209102;28;20411;-62
2022/03/05 03:05:28;;;;;;;;;;;;;;;-2.27;100.00;101934.59;5208663;28;20016;-62
2022/03/05 03:07:59;;;;;;;;;;;;;;;-2.33;100.00;101930.75;5208733;28;20026;-60
2022/03/05 03:10:29;;;;;;;;;;;;;;;-2.31;100.00;101933.25;5208641;28;19912;-60
2022/03/05 03:13:00;;;;;;;;;;;;;;;-2.30;100.00;101924.31;5208713;28;19913;-62
2022/03/05 03:15:30;;;;;;;;;;;;;;;-2.33;100.00;101930.75;5208605;28;19924;-62
2022/03/05 03:18:00;;;;;;;;;;;;;;;-2.35;100.00;101930.06;5208789;28;19967;-62
2022/03/05 03:20:30;;;;;;;;;;;;;;;-2.35;100.00;101937.16;5208447;28;20027;-61
2022/03/05 03:23:01;;;;;;;;;;;;;;;-2.34;100.00;101939.66;5208474;28;19913;-61
2022/03/05 03:25:31;;;;;;;;;;;;;;;-2.28;100.00;101932.94;5208070;28;19920;-60
2022/03/05 03:28:01;;;;;;;;;;;;;;;-2.28;100.00;101936.41;5208519;28;19912;-60
2022/03/05 03:30:32;;;;;;;;;;;;;;;-2.33;100.00;101938.69;5208281;28;20403;-61
2022/03/05 03:33:02;;;;;;;;;;;;;;;-2.42;100.00;101942.19;5208418;28;19917;-59
2022/03/05 03:35:33;;;;;;;;;;;;;;;-2.49;100.00;101935.81;5209962;28;19913;-58
2022/03/05 03:38:03;;;;;;;;;;;;;;;-2.43;100.00;101933.44;5208893;28;19920;-60
2022/03/05 03:40:33;;;;;;;;;;;;;;;-2.41;100.00;101938.56;5208276;28;20006;-62
2022/03/05 03:43:04;;;;;;;;;;;;;;;-2.42;100.00;101937.75;5226160;28;19920;-62
2022/03/05 03:45:34;;;;;;;;;;;;;;;-2.49;100.00;101935.81;5208085;28;19912;-62
2022/03/05 03:48:05;;;;;;;;;;;;;;;-2.55;100.00;101931.09;5208441;28;19916;-61
2022/03/05 03:50:35;;;;;;;;;;;;;;;-2.53;100.00;101937.91;5208204;28;19913;-62
2022/03/05 03:53:05;;;;;;;;;;;;;;;-2.47;100.00;101939.16;5208200;28;19970;-60
2022/03/05 03:55:36;;;;;;;;;;;;;;;-2.51;100.00;101937.75;5207967;28;20011;-62
2022/03/05 03:58:06;;;;;;;;;;;;;;;-2.57;100.00;101939.16;5208293;28;19920;-59
2022/03/05 04:00:36;;;;;;;;;;;;;;;-2.60;100.00;101938.66;5208380;28;19943;-59
2022/03/05 04:03:07;;;;;;;;;;;;;;;-2.60;100.00;101936.84;5208079;28;20274;-60
2022/03/05 04:05:37;;;;;;;;;;;;;;;-2.60;100.00;101944.78;5208039;28;20284;-61
2022/03/05 04:10:56;;;;;;;;;;;;;;;-2.74;100.00;101942.56;5226363;28;20423;-62
2022/03/05 04:13:27;;;;;;;;;;;;;;;-2.81;100.00;101947.59;5212188;28;19952;-61
2022/03/05 04:15:58;;;;;;;;;;;;;;;-2.86;100.00;101941.06;5212174;28;20412;-61
2022/03/05 04:18:28;;;;;;;;;;;;;;;-2.82;100.00;101945.09;5211801;28;19912;-60
2022/03/05 04:20:58;;;;;;;;;;;;;;;-2.81;100.00;101941.47;5211861;28;19917;-61
2022/03/05 04:23:29;;;;;;;;;;;;;;;-2.83;100.00;101936.31;5211599;28;19913;-59
2022/03/05 04:25:59;;;;;;;;;;;;;;;-2.84;100.00;101937.28;5211871;28;20425;-59
2022/03/05 04:28:29;;;;;;;;;;;;;;;-2.86;100.00;101949.81;5211890;28;19920;-60
2022/03/05 04:31:00;;;;;;;;;;;;;;;-2.91;100.00;101945.94;5211685;28;19917;-59
2022/03/05 04:33:30;;;;;;;;;;;;;;;-2.95;100.00;101945.41;5229483;28;19913;-60
2022/03/05 04:36:00;;;;;;;;;;;;;;;-3.02;100.00;101944.28;5211737;28;19959;-62
2022/03/05 04:38:31;;;;;;;;;;;;;;;-3.09;100.00;101953.75;5211535;28;19935;-62
2022/03/05 04:41:01;;;;;;;;;;;;;;;-3.18;100.00;101954.59;5211576;28;19917;-62
2022/03/05 04:43:31;;;;;;;;;;;;;;;-3.24;100.00;101947.22;5211013;28;19913;-62
2022/03/05 04:46:02;;;;;;;;;;;;;;;-3.24;100.00;101944.59;5211396;28;20320;-62
2022/03/05 04:48:32;;;;;;;;;;;;;;;-3.15;100.00;101946.38;5211182;28;19923;-61
2022/03/05 04:51:02;;;;;;;;;;;;;;;-3.08;100.00;101958.88;5211339;28;19962;-61
2022/03/05 04:53:33;;;;;;;;;;;;;;;-3.10;100.00;101970.56;5211175;28;19974;-62
2022/03/05 04:56:03;;;;;;;;;;;;;;;-3.18;100.00;101965.16;5211246;28;19913;-63
2022/03/05 04:58:34;;;;;;;;;;;;;;;-3.27;100.00;101968.63;5211245;28;20331;-62
2022/03/05 05:01:04;;;;;;;;;;;;;;;-3.33;100.00;101958.63;5210887;28;19916;-61
2022/03/05 05:03:34;;;;;;;;;;;;;;;-3.35;100.00;101957.94;5210931;28;19920;-61
2022/03/05 05:06:06;;;;;;;;;;;;;;;-3.28;100.00;101956.41;5211064;28;20050;-61
2022/03/05 05:08:36;;;;;;;;;;;;;;;-3.15;100.00;101963.06;5210953;28;20325;-61
2022/03/05 05:11:06;;;;;;;;;;;;;;;-3.09;100.00;101954.56;5210984;28;19963;-62
2022/03/05 05:13:38;;;;;;;;;;;;;;;-3.08;100.00;101955.41;5210599;28;19920;-62
2022/03/05 05:16:08;;;;;;;;;;;;;;;-3.17;100.00;101961.53;5211019;28;19913;-62
2022/03/05 05:18:38;;;;;;;;;;;;;;;-3.27;100.00;101960.72;5210473;28;19913;-61
2022/03/05 05:21:09;;;;;;;;;;;;;;;-3.38;100.00;101950.28;5210501;28;20288;-61
2022/03/05 05:23:39;;;;;;;;;;;;;;;-3.44;100.00;101952.50;5209957;28;19996;-63
2022/03/05 05:26:10;;;;;;;;;;;;;;;-3.47;100.00;101955.44;5210594;28;19917;-63
2022/03/05 05:28:40;;;;;;;;;;;;;;;-3.52;100.00;101949.72;5210833;28;20004;-62
2022/03/05 05:31:10;;;;;;;;;;;;;;;-3.54;100.00;101956.13;5210903;28;19924;-63
2022/03/05 05:33:44;;;;;;;;;;;;;;;-3.62;100.00;101962.06;5210429;28;19921;-63
2022/03/05 05:36:14;;;;;;;;;;;;;;;-3.64;100.00;101963.16;5210264;28;19920;-62
2022/03/05 05:38:44;;;;;;;;;;;;;;;-3.65;100.00;101967.63;5210592;28;19917;-63
2022/03/05 05:41:16;;;;;;;;;;;;;;;-3.57;100.00;101972.22;5210246;28;20052;-63
2022/03/05 05:43:46;;;;;;;;;;;;;;;-3.55;100.00;101973.75;5209974;28;20160;-60
2022/03/05 05:46:16;;;;;;;;;;;;;;;-3.53;100.00;101977.09;5210345;28;19919;-62
2022/03/05 05:48:47;;;;;;;;;;;;;;;-3.60;100.00;101973.31;5216090;22;19935;-59
2022/03/05 05:51:17;;;;;;;;;;;;;;;-3.64;100.00;101971.94;5210281;28;19970;-59
2022/03/05 05:53:47;;;;;;;;;;;;;;;-3.65;100.00;101975.53;5210549;28;20376;-59
2022/03/05 05:56:18;;;;;;;;;;;;;;;-3.57;100.00;101970.41;5210609;28;19919;-59
2022/03/05 05:58:49;;;;;;;;;;;;;;;-3.46;100.00;101966.78;5210612;28;19979;-59
2022/03/05 06:01:19;;;;;;;;;;;;;;;-3.40;100.00;101964.44;5210453;28;19917;-59
2022/03/05 06:03:50;;;;;;;;;;;;;;;-3.34;100.00;101970.16;5210299;28;19913;-59
2022/03/05 06:06:21;;;;;;;;;;;;;;;-3.28;100.00;101974.91;5210197;28;19913;-59
2022/03/05 06:08:51;;;;;;;;;;;;;;;-3.30;100.00;101966.28;5210266;28;19956;-59
2022/03/05 06:11:21;;;;;;;;;;;;;;;-3.29;100.00;101970.59;5210170;28;20334;-59
2022/03/05 06:13:52;;;;;;;;;;;;;;;-3.35;100.00;101971.13;5209771;28;19935;-59
2022/03/05 06:16:22;;;;;;;;;;;;;;;-3.42;100.00;101968.19;5210176;28;19913;-59
2022/03/05 06:18:52;;;;;;;;;;;;;;;-3.51;100.00;101969.88;5227901;28;19971;-58
2022/03/05 06:21:23;;;;;;;;;;;;;;;-3.63;100.00;101967.47;5209756;28;19916;-60
2022/03/05 06:23:53;;;;;;;;;;;;;;;-3.70;100.00;101969.81;5209536;28;19913;-60
2022/03/05 06:26:23;;;;;;;;;;;;;;;-4.28;100.00;101869.44;5209970;28;19961;-58
2022/03/05 06:28:54;;;;;;;;;;;;;;;-3.74;100.00;101969.25;5209462;28;20331;-59
2022/03/05 06:31:25;;;;;;;;;;;;;;;-3.80;100.00;101969.00;5227218;28;19923;-61
2022/03/05 06:33:55;;;;;;;;;;;;;;;-4.43;100.00;101882.19;5226601;28;20296;-59
2022/03/05 06:36:25;;;;;;;;;;;;;;;-3.79;100.00;101981.22;5227266;28;20005;-60
2022/03/05 06:38:56;;;;;;;;;;;;;;;-3.78;100.00;101993.44;5209355;28;20377;-60
2022/03/05 06:41:26;;;;;;;;;;;;;;;-3.76;100.00;101986.22;5209290;28;20395;-60
2022/03/05 06:43:57;;;;;;;;;;;;;;;-3.76;100.00;101987.06;5209141;28;20002;-58
2022/03/05 06:46:27;;;;;;;;;;;;;;;-3.67;100.00;101987.19;5209622;28;19991;-59
2022/03/05 06:48:57;;;;;;;;;;;;;;;-3.63;100.00;101989.44;5209089;28;20371;-59
2022/03/05 06:51:28;;;;;;;;;;;;;;;-3.61;100.00;101992.78;5227087;28;19919;-59
2022/03/05 06:53:58;;;;;;;;;;;;;;;-3.51;100.00;102000.72;5208903;28;19988;-60
2022/03/05 06:56:28;;;;;;;;;;;;;;;-3.43;100.00;102004.34;5210167;28;19913;-60
2022/03/05 06:58:59;;;;;;;;;;;;;;;-3.37;100.00;101996.84;5209864;28;19913;-60
2022/03/05 07:01:29;;;;;;;;;;;;;;;-3.33;100.00;102004.34;5209354;28;20055;-60
2022/03/05 07:04:00;;;;;;;;;;;;;;;-3.28;100.00;102003.94;5209274;28;19913;-59
2022/03/05 07:06:30;;;;;;;;;;;;;;;-3.19;100.00;102009.25;5209509;28;19917;-60
2022/03/05 07:09:00;;;;;;;;;;;;;;;-3.12;100.00;102012.16;5227023;28;19913;-60
2022/03/05 07:11:31;;;;;;;;;;;;;;;-3.08;100.00;102014.38;5209288;28;19913;-61
2022/03/05 07:14:02;;;;;;;;;;;;;;;-3.04;100.00;102009.66;5226999;28;19959;-60
2022/03/05 07:16:32;;;;;;;;;;;;;;;-2.98;100.00;102014.38;5208713;28;20340;-60
2022/03/05 07:19:03;;;;;;;;;;;;;;;-2.95;100.00;102019.41;5209480;28;19966;-60
2022/03/05 07:21:33;;;;;;;;;;;;;;;-2.93;100.00;102020.09;5227023;28;19924;-60
2022/03/05 07:24:04;;;;;;;;;;;;;;;-2.88;100.00;102019.66;5209394;28;20351;-61
2022/03/05 07:26:34;;;;;;;;;;;;;;;-2.83;100.00;102023.53;5209371;28;19959;-59
2022/03/05 07:29:05;;;;;;;;;;;;;;;-2.74;100.00;102025.34;5209042;28;19913;-60
2022/03/05 07:31:36;;;;;;;;;;;;;;;-2.68;100.00;102023.13;5209105;28;19916;-59
2022/03/05 07:34:06;;;;;;;;;;;;;;;-2.60;100.00;102033.84;5209092;28;19913;-59
2022/03/05 07:36:36;;;;;;;;;;;;;;;-2.52;100.00;102023.38;5209056;28;19917;-59
2022/03/05 07:39:09;;;;;;;;;;;;;;;-2.46;100.00;102017.53;5208726;28;20410;-59
2022/03/05 07:41:41;;;;;;;;;;;;;;;-2.44;100.00;102023.50;5208686;28;19939;-59
2022/03/05 07:44:11;;;;;;;;;;;;;;;-2.37;100.00;102027.25;5208896;28;19963;-59
2022/03/05 07:46:41;;;;;;;;;;;;;;;-2.29;100.00;102026.50;5212132;28;20337;-59
2022/03/05 07:49:11;;;;;;;;;;;;;;;-2.22;100.00;102040.84;5213162;28;20007;-59
2022/03/05 07:51:42;;;;;;;;;;;;;;;-2.10;100.00;102040.53;5212991;28;19916;-58
2022/03/05 07:54:12;;;;;;;;;;;;;;;-2.00;100.00;102042.28;5212619;28;20330;-59
2022/03/05 07:56:43;;;;;;;;;;;;;;;-1.95;100.00;102040.88;5213023;28;19919;-59
2022/03/05 07:59:14;;;;;;;;;;;;;;;-1.88;100.00;102046.44;5213155;28;20022;-59
2022/03/05 08:01:44;;;;;;;;;;;;;;;-1.80;100.00;102038.59;5212568;28;19999;-59
2022/03/05 08:04:14;;;;;;;;;;;;;;;-1.72;100.00;102041.34;5212525;28;20372;-59
2022/03/05 08:06:45;;;;;;;;;;;;;;;-1.64;100.00;102045.91;5213107;28;19913;-58
2022/03/05 08:09:15;;;;;;;;;;;;;;;-1.54;100.00;102044.88;5212768;28;20303;-59
2022/03/05 08:11:45;;;;;;;;;;;;;;;-1.45;100.00;102041.34;5213205;28;19913;-62
2022/03/05 08:14:16;;;;;;;;;;;;;;;-1.38;100.00;102039.75;5212792;28;20008;-59
2022/03/05 08:16:46;;;;;;;;;;;;;;;-1.32;100.00;102045.44;5212697;28;19972;-59
2022/03/05 08:19:16;;;;;;;;;;;;;;;-1.22;100.00;102040.94;5212277;28;20360;-59
2022/03/05 08:21:47;;;;;;;;;;;;;;;-1.10;100.00;102047.66;5212049;28;19932;-58
2022/03/05 08:24:17;;;;;;;;;;;;;;;-1.04;100.00;102049.72;5212003;28;20403;-58
2022/03/05 08:26:47;;;;;;;;;;;;;;;-0.94;100.00;102055.78;5211834;28;19913;-58
2022/03/05 08:29:18;;;;;;;;;;;;;;;-0.80;100.00;102054.41;5212270;28;20296;-59
2022/03/05 08:31:48;;;;;;;;;;;;;;;-0.72;100.00;102057.13;5212118;28;19913;-59
2022/03/05 08:34:18;;;;;;;;;;;;;;;-0.62;100.00;102063.19;5212064;28;19935;-60
2022/03/05 08:36:49;;;;;;;;;;;;;;;-0.52;100.00;102063.09;5230023;28;19916;-60
2022/03/05 08:39:19;;;;;;;;;;;;;;;-0.43;100.00;102060.34;5212098;28;19913;-61
2022/03/05 08:41:49;;;;;;;;;;;;;;;-0.31;100.00;102054.81;5229885;28;19932;-60
2022/03/05 08:44:20;;;;;;;;;;;;;;;-0.26;100.00;102052.50;5211563;28;19963;-59
2022/03/05 08:46:50;;;;;;;;;;;;;;;-0.17;100.00;102054.22;5211991;28;19935;-60
2022/03/05 08:49:20;;;;;;;;;;;;;;;-0.01;100.00;102057.00;5211683;28;20369;-60
2022/03/05 08:51:50;;;;;;;;;;;;;;;0.10;100.00;102053.22;5211754;28;19963;-60
2022/03/05 08:54:21;;;;;;;;;;;;;;;0.17;100.00;102048.94;5211489;28;20330;-60
2022/03/05 08:56:52;;;;;;;;;;;;;;;0.22;100.00;102044.81;5211073;28;19917;-60
2022/03/05 08:59:22;;;;;;;;;;;;;;;0.30;100.00;102049.31;5211078;28;20003;-60
2022/03/05 09:01:52;;;;;;;;;;;;;;;0.46;100.00;102057.38;5210989;28;20326;-60
2022/03/05 09:04:23;;;;;;;;;;;;;;;0.62;100.00;102048.59;5210950;28;19920;-60
2022/03/05 09:06:53;;;;;;;;;;;;;;;0.67;100.00;102047.13;5210772;28;19913;-60
2022/03/05 09:09:24;;;;;;;;;;;;;;;0.76;100.00;102055.13;5210862;28;19960;-60
2022/03/05 09:11:54;;;;;;;;;;;;;;;0.86;100.00;102058.50;5210740;28;19913;-60
2022/03/05 09:14:24;;;;;;;;;;;;;;;1.02;100.00;102053.19;5210571;28;19919;-61
2022/03/05 09:16:56;;;;;;;;;;;;;;;1.17;100.00;102058.69;5210408;28;20393;-61
2022/03/05 09:19:26;;;;;;;;;;;;;;;1.30;100.00;102056.38;5210681;28;20429;-61
2022/03/05 09:21:57;;;;;;;;;;;;;;;1.43;100.00;102064.69;5210279;28;20055;-61
2022/03/05 09:24:27;;;;;;;;;;;;;;;1.53;100.00;102061.84;5210499;28;20300;-61
2022/03/05 09:26:57;;;;;;;;;;;;;;;1.66;100.00;102060.34;5210646;28;19913;-60
2022/03/05 09:29:28;;;;;;;;;;;;;;;1.71;100.00;102065.19;5193808;28;19913;-61
2022/03/05 09:31:58;;;;;;;;;;;;;;;1.79;100.00;102061.66;5210570;28;20083;-61
2022/03/05 09:34:29;;;;;;;;;;;;;;;1.99;100.00;102066.47;5210814;28;20384;-61
2022/03/05 09:36:59;;;;;;;;;;;;;;;2.16;100.00;102063.75;5211144;28;19912;-61
2022/03/05 09:39:29;;;;;;;;;;;;;;;2.46;100.00;102057.63;5211052;28;19912;-61
2022/03/05 09:42:00;;;;;;;;;;;;;;;2.72;100.00;102058.16;5210600;28;20365;-61
2022/03/05 09:44:30;;;;;;;;;;;;;;;2.97;100.00;102056.19;5228246;28;19919;-61
2022/03/05 09:47:01;;;;;;;;;;;;;;;3.20;100.00;102056.19;5211589;28;19913;-62
2022/03/05 09:49:35;;;;;;;;;;;;;;;3.28;100.00;102057.97;5212619;28;20395;-61
2022/03/05 09:52:06;;;;;;;;;;;;;;;3.28;100.00;102061.47;5212525;28;19912;-62
2022/03/05 09:54:36;;;;;;;;;;;;;;;3.33;100.00;102058.28;5213611;28;19998;-62
2022/03/05 09:57:11;;;;;;;;;;;;;;;3.49;100.00;102047.44;5213847;28;19960;-62
2022/03/05 09:59:41;;;;;;;;;;;;;;;3.60;100.00;102051.53;5212400;28;20435;-62
2022/03/05 10:02:12;;;;;;;;;;;;;;;3.62;100.00;102054.84;5212211;28;20008;-62
2022/03/05 10:04:42;;;;;;;;;;;;;;;3.65;100.00;102057.16;5228917;28;20261;-62
2022/03/05 10:07:13;;;;;;;;;;;;;;;3.78;100.00;102049.34;5211362;28;19913;-62
2022/03/05 10:09:45;;;;;;;;;;;;;;;4.03;100.00;102053.44;5211371;28;19913;-62
2022/03/05 10:12:26;;;;;;;;;;;;;;;4.14;100.00;102054.81;5211164;28;19985;-62
2022/03/05 10:15:04;;;;;;;;;;;;;;;4.29;100.00;102050.31;5212318;28;19913;-61
2022/03/05 10:17:47;;;;;;;;;;;;;;;4.38;100.00;102043.81;5213033;28;19928;-60
2022/03/05 10:20:17;;;;;;;;;;;;;;;4.67;100.00;102052.81;5212043;28;20424;-60
2022/03/05 10:23:07;;;;;;;;;;;;;;;4.89;100.00;102038.47;5212945;28;19942;-60
2022/03/05 10:25:41;;;;;;;;;;;;;;;4.90;100.00;102042.81;5229368;28;20337;-62
2022/03/05 10:28:12;;;;;;;;;;;;;;;4.96;100.00;102043.88;5211736;28;19921;-61
2022/03/05 10:30:44;;;;;;;;;;;;;;;5.04;100.00;102041.91;5210616;28;20007;-63
2022/03/05 10:33:35;;;;;;;;;;;;;;;5.22;100.00;102043.31;5209979;28;19958;-61
2022/03/05 10:36:19;;;;;;;;;;;;;;;5.47;100.00;102043.75;5210549;28;19913;-61
2022/03/05 10:38:56;;;;;;;;;;;;;;;5.58;100.00;102038.69;5210409;28;19916;-61
2022/03/05 10:41:35;;;;;;;;;;;;;;;5.62;100.00;102045.31;5228087;28;20012;-61
2022/03/05 10:44:08;;;;;;;;;;;;;;;5.57;100.00;102046.91;5211305;28;19922;-62
2022/03/05 10:46:43;;;;;;;;;;;;;;;5.66;100.00;102043.09;5211249;28;20281;-62
2022/03/05 10:49:20;;;;;;;;;;;;;;;5.78;100.00;102034.28;5211196;28;20573;-62
2022/03/05 10:51:52;;;;;;;;;;;;;;;6.05;100.00;102040.72;5211387;28;20434;-62
2022/03/05 10:54:26;;;;;;;;;;;;;;;6.12;100.00;102037.22;5212950;28;19959;-61
2022/03/05 10:56:57;;;;;;;;;;;;;;;6.30;100.00;102042.91;5213543;28;19917;-62
2022/03/05 10:59:33;;;;;;;;;;;;;;;6.55;100.00;102033.31;5213167;28;19917;-62
2022/03/05 11:02:03;;;;;;;;;;;;;;;6.78;100.00;102031.13;5214295;28;19917;-62
2022/03/05 11:04:35;;;;;;;;;;;;;;;6.85;97.85;102035.69;5214355;28;19912;-62
2022/03/05 11:07:06;;;;;;;;;;;;;;;6.87;96.74;102039.00;5214070;28;20297;-62
2022/03/05 11:09:37;;;;;;;;;;;;;;;6.72;96.05;102039.13;5213236;28;19912;-62
2022/03/05 11:12:09;;;;;;;;;;;;;;;6.70;97.98;102033.97;5213204;28;20297;-62
2022/03/05 11:14:43;;;;;;;;;;;;;;;6.91;98.80;102034.88;5212487;28;20336;-62
2022/03/05 11:17:14;;;;;;;;;;;;;;;7.10;100.00;102028.69;5213543;28;20365;-62
2022/03/05 11:19:45;;;;;;;;;;;;;;;7.25;99.80;102032.00;5212855;28;19967;-62
2022/03/05 11:22:15;;;;;;;;;;;;;;;7.26;96.94;102046.28;5211965;28;20270;-61
2022/03/05 11:24:46;;;;;;;;;;;;;;;7.00;97.77;102041.69;5211241;28;19931;-62
2022/03/05 11:27:16;;;;;;;;;;;;;;;6.86;97.69;102040.84;5211185;28;19959;-62
2022/03/05 11:30:06;;;;;;;;;;;;;;;6.85;97.31;102036.50;5210399;28;19917;-62
2022/03/05 11:32:39;;;;;;;;;;;;;;;6.94;100.00;102023.69;5212004;28;20394;-62
2022/03/05 11:35:20;;;;;;;;;;;;;;;7.07;98.18;102031.78;5210675;28;20398;-62
2022/03/05 11:37:50;;;;;;;;;;;;;;;7.39;99.63;102033.69;5212271;28;19913;-62
2022/03/05 11:40:38;;;;;;;;;;;;;;;7.65;98.78;102029.34;5209923;28;19916;-62
2022/03/05 11:43:24;;;;;;;;;;;;;;;7.83;95.70;102023.31;5209929;28;19982;-62
2022/03/05 11:46:04;;;;;;;;;;;;;;;7.88;95.61;102021.66;5209654;28;19912;-62
2022/03/05 11:48:36;;;;;;;;;;;;;;;7.82;96.29;102008.22;5222561;22;19967;-64
2022/03/05 11:51:07;;;;;;;;;;;;;;;7.83;95.69;102008.00;5207809;28;19921;-64
2022/03/05 11:53:41;;;;;;;;;;;;;;;7.91;95.99;102007.78;5224557;28;20014;-64
2022/03/05 11:56:21;;;;;;;;;;;;;;;7.73;92.90;101948.47;5246695;28;19932;-64
2022/03/05 11:58:52;;;;;;;;;;;;;;;8.32;92.16;102001.25;5228475;28;19958;-64
2022/03/05 12:01:33;;;;;;;;;;;;;;;8.30;90.05;102000.66;5228332;28;20293;-64
2022/03/05 12:04:19;;;;;;;;;;;;;;;8.35;89.33;102000.88;5228167;28;19966;-64
2022/03/05 12:06:55;;;;;;;;;;;;;;;8.34;90.00;101999.22;5228377;28;19958;-64
2022/03/05 12:09:38;;;;;;;;;;;;;;;8.43;92.24;102004.13;5228270;28;19919;-64
2022/03/05 12:12:10;;;;;;;;;;;;;;;8.67;90.33;101993.66;5228235;28;19999;-64
2022/03/05 12:14:56;;;;;;;;;;;;;;;8.81;88.85;101989.84;5227808;28;19916;-64
2022/03/05 12:17:30;;;;;;;;;;;;;;;8.89;88.67;101991.47;5246020;28;19913;-64
2022/03/05 12:20:03;;;;;;;;;;;;;;;9.01;90.26;101987.84;5228238;28;19920;-64
2022/03/05 12:22:34;;;;;;;;;;;;;;;9.15;88.92;101985.91;5227947;28;19916;-64
2022/03/05 12:25:04;;;;;;;;;;;;;;;9.23;88.93;101982.94;5227783;28;19941;-65
2022/03/05 12:27:35;;;;;;;;;;;;;;;9.29;87.33;101987.44;5228015;28;20283;-64
2022/03/05 12:30:06;;;;;;;;;;;;;;;9.27;86.96;101983.28;5228069;28;19970;-65
2022/03/05 12:32:36;;;;;;;;;;;;;;;9.28;84.30;101982.25;5229139;28;19917;-64
2022/03/05 12:35:08;;;;;;;;;;;;;;;9.30;83.48;101978.28;5231491;28;19986;-64
2022/03/05 12:37:38;;;;;;;;;;;;;;;9.20;83.46;101977.16;5231388;28;19966;-64
2022/03/05 12:40:09;;;;;;;;;;;;;;;9.24;86.44;101968.38;5231491;28;19944;-64
2022/03/05 12:42:40;;;;;;;;;;;;;;;9.42;83.70;101970.31;5231168;28;20192;-64
2022/03/05 12:45:21;;;;;;;;;;;;;;;9.41;84.44;101974.91;5231396;28;19935;-65
2022/03/05 12:47:55;;;;;;;;;;;;;;;9.39;83.69;101976.97;5231482;28;19986;-65
2022/03/05 12:50:33;;;;;;;;;;;;;;;9.45;84.91;101969.88;5231322;28;20015;-64
2022/03/05 12:53:04;;;;;;;;;;;;;;;9.51;84.14;101969.00;5231262;28;19921;-65
2022/03/05 12:56:00;;;;;;;;;;;;;;;9.69;85.26;101966.31;5231132;28;20362;-64